G. M. Dannevig — LINW — position and weather

sailwx.info

Track history (hours):
 
Tides and Currents Weather Stations Pressure Air Temp Water Temp Dewpoint Dewpoint Depression Visibility Wind Speed Wind Dir Waves Ship Positions

Oceanographic research ship G. M. Dannevig (Norway)

Detailed information on ship capabilities available from University of Delaware's Ocean Information Center.

Last reported at 2017-Jul-05 08:30 UTC. Time now 2017-Jul-24 18:45 UTC.
Position N 58°43' E 009°18'.
Warning: this ship's position is 19 days out of date.

Length 27 m; draft 0.35 m.

Type: Dredging. MMSI: 258513000.

Date/timePositionNaut miles runAvg speedWind from/ knotsBaromVisibWave heightAir tempDewpointWater temp
2017-Jul-05 08:30N 58°43' E 009°18'5 9.6
2017-Jul-05 08:00N 58°45' E 009°26'5 9.9
2017-Jul-05 07:30N 58°48' E 009°34'5 9.8
2017-Jul-05 07:00N 58°50' E 009°42'5 9.4
2017-Jul-05 06:30N 58°53' E 009°50'5 9.7
2017-Jul-05 06:00N 58°55' E 009°58'5 9.1
2017-Jul-05 05:30N 58°59' E 010°04'4 8.6
2017-Jul-05 05:00N 59°03' E 010°02'0 0.1
2017-Jul-05 04:30N 59°03' E 010°02'0 0.0
2017-Jul-05 04:00N 59°03' E 010°02'0 0.0
2017-Jul-05 03:29N 59°03' E 010°02'0 0.0
2017-Jul-05 03:00N 59°03' E 010°02'0 0.0
2017-Jul-05 02:30N 59°03' E 010°02'0 0.0
2017-Jul-05 02:00N 59°03' E 010°02'0 0.0
2017-Jul-05 01:30N 59°03' E 010°02'0 0.0
2017-Jul-05 01:00N 59°03' E 010°02'0 0.0
2017-Jul-05 00:30N 59°03' E 010°02'0 0.0
2017-Jul-05 00:00N 59°03' E 010°02'0 0.0
2017-Jul-04 23:30N 59°03' E 010°02'0 0.0
2017-Jul-04 23:00N 59°03' E 010°02'0 0.0
2017-Jul-04 22:30N 59°03' E 010°02'0 0.0
2017-Jul-04 22:00N 59°03' E 010°02'0 0.0
2017-Jul-04 21:30N 59°03' E 010°02'0 0.0
2017-Jul-04 21:00N 59°03' E 010°02'0 0.0
2017-Jul-04 20:30N 59°03' E 010°02'0 0.0
2017-Jul-04 20:00N 59°03' E 010°02'0 0.0
2017-Jul-04 19:30N 59°03' E 010°02'0 0.0
2017-Jul-04 19:00N 59°03' E 010°02'0 0.0
2017-Jul-04 18:30N 59°03' E 010°02'0 0.0
2017-Jul-04 18:00N 59°03' E 010°02'3 5.1
2017-Jul-04 17:30N 59°01' E 010°04'4 8.4
2017-Jul-04 17:00N 58°60' E 010°12'5 9.1
2017-Jul-04 16:30N 59°00' E 010°20'4 9.0
2017-Jul-04 16:00N 59°01' E 010°29'4 8.8
2017-Jul-04 15:30N 59°02' E 010°37'4 8.4
2017-Jul-04 15:00N 59°02' E 010°45'3 2.7
2017-Jul-04 14:00N 59°03' E 010°51'4 7.3
2017-Jul-04 13:30N 59°01' E 010°57'4 8.6
2017-Jul-04 13:00N 59°02' E 011°05'4 8.8
2017-Jul-04 12:30N 59°05' E 011°12'3 6.5
2017-Jul-04 12:00N 59°06' E 011°18'3 6.1
2017-Jul-04 11:30N 59°05' E 011°23'3 5.0
2017-Jul-04 11:00N 59°07' E 011°20'4 8.1
2017-Jul-04 10:30N 59°05' E 011°12'2 3.9
2017-Jul-04 10:00N 59°06' E 011°09'4 8.5
2017-Jul-04 09:30N 59°06' E 011°01'2 4.5
2017-Jul-04 09:00N 59°08' E 010°58'3 5.3
2017-Jul-04 08:30N 59°08' E 010°53'2 4.9
2017-Jul-04 08:00N 59°09' E 010°48'4 8.9
2017-Jul-04 07:30N 59°11' E 010°41'0 0.3
2017-Jul-04 07:00N 59°11' E 010°41'3 6.6
2017-Jul-04 06:31N 59°14' E 010°43'3 5.5
2017-Jul-04 06:00N 59°17' E 010°43'4 8.3
2017-Jul-04 05:30N 59°15' E 010°36'3 6.0
2017-Jul-04 05:00N 59°13' E 010°32'0 0.0
2017-Jul-04 04:30N 59°13' E 010°32'0 0.0
2017-Jul-04 04:00N 59°13' E 010°32'0 0.0
2017-Jul-04 03:30N 59°13' E 010°32'0 0.0
2017-Jul-04 03:00N 59°13' E 010°32'0 0.0
2017-Jul-04 02:30N 59°13' E 010°32'0 0.0
2017-Jul-04 02:00N 59°13' E 010°32'0 0.0
2017-Jul-04 01:30N 59°13' E 010°32'0 0.0
2017-Jul-04 01:00N 59°13' E 010°32'0 0.0
2017-Jul-04 00:30N 59°13' E 010°32'0 0.0
2017-Jul-04 00:00N 59°13' E 010°32'0 0.0
2017-Jul-03 23:30N 59°13' E 010°32'0 0.0
2017-Jul-03 23:00N 59°13' E 010°32'0 0.0
2017-Jul-03 22:30N 59°13' E 010°32'0 0.0
2017-Jul-03 22:00N 59°13' E 010°32'0 0.0
2017-Jul-03 21:30N 59°13' E 010°32'0 0.0
2017-Jul-03 21:00N 59°13' E 010°32'0 0.0
2017-Jul-03 20:30N 59°13' E 010°32'0 0.0
2017-Jul-03 20:00N 59°13' E 010°32'0 0.0
2017-Jul-03 19:30N 59°13' E 010°32'0 0.0
2017-Jul-03 19:00N 59°13' E 010°32'0 0.0
2017-Jul-03 18:30N 59°13' E 010°32'0 0.0
2017-Jul-03 18:00N 59°13' E 010°32'0 0.0
2017-Jul-03 17:30N 59°13' E 010°32'1 1.6
2017-Jul-03 17:00N 59°12' E 010°32'3 5.6
2017-Jul-03 16:30N 59°10' E 010°34'2 4.3
2017-Jul-03 16:00N 59°08' E 010°36'4 8.4
2017-Jul-03 15:30N 59°12' E 010°36'4 7.6
2017-Jul-03 15:00N 59°16' E 010°34'7 6.8
2017-Jul-03 14:00N 59°22' E 010°36'3 6.8
2017-Jul-03 13:30N 59°26' E 010°35'5 9.2
2017-Jul-03 13:00N 59°30' E 010°37'2 4.1
2017-Jul-03 12:30N 59°29' E 010°41'4 8.8
2017-Jul-03 12:00N 59°33' E 010°39'1 1.6
2017-Jul-03 11:30N 59°34' E 010°38'5 9.1
2017-Jul-03 11:00N 59°31' E 010°31'4 7.4
2017-Jul-03 10:30N 59°32' E 010°24'5 9.2
2017-Jul-03 10:00N 59°37' E 010°25'3 6.3
2017-Jul-03 09:30N 59°40' E 010°24'4 7.0
2017-Jul-03 09:00N 59°42' E 010°19'4 8.8
2017-Jul-03 08:30N 59°39' E 010°24'4 7.8
2017-Jul-03 08:00N 59°35' E 010°25'4 8.3
2017-Jul-03 07:30N 59°31' E 010°25'2 4.5
2017-Jul-03 07:00N 59°29' E 010°28'4 8.7
2017-Jul-03 06:30N 59°25' E 010°32'4 8.8
2017-Jul-03 06:00N 59°21' E 010°33'4 8.7
2017-Jul-03 05:30N 59°16' E 010°33'3 6.9
2017-Jul-03 05:00N 59°13' E 010°32'0 0.0
2017-Jul-03 04:30N 59°13' E 010°32'0 0.0
2017-Jul-03 04:00N 59°13' E 010°32'0 0.0
2017-Jul-03 03:30N 59°13' E 010°32'0 0.0
2017-Jul-03 03:00N 59°13' E 010°32'0 0.0
2017-Jul-03 02:30N 59°13' E 010°32'0 0.0
2017-Jul-03 02:00N 59°13' E 010°32'0 0.0
2017-Jul-03 01:30N 59°13' E 010°32'0 0.0
2017-Jul-03 01:00N 59°13' E 010°32'0 0.0
2017-Jul-03 00:30N 59°13' E 010°32'0 0.0
2017-Jul-03 00:00N 59°13' E 010°32'0 0.0
2017-Jul-02 23:30N 59°13' E 010°32'0 0.0
2017-Jul-02 23:00N 59°13' E 010°32'0 0.0
2017-Jul-02 22:30N 59°13' E 010°32'0 0.0
2017-Jul-02 22:00N 59°13' E 010°32'0 0.0
2017-Jul-02 21:30N 59°13' E 010°32'0 0.0
2017-Jul-02 21:00N 59°13' E 010°32'0 0.0
2017-Jul-02 20:30N 59°13' E 010°32'0 0.0
2017-Jul-02 20:00N 59°13' E 010°32'0 0.0
2017-Jul-02 19:30N 59°13' E 010°32'0 0.0
2017-Jul-02 19:00N 59°13' E 010°32'0 0.0
2017-Jul-02 18:30N 59°13' E 010°32'0 0.0
2017-Jul-02 18:00N 59°13' E 010°32'0 0.2
2017-Jul-02 17:30N 59°13' E 010°31'4 8.3
2017-Jul-02 17:00N 59°09' E 010°28'0 0.7
2017-Jul-02 16:30N 59°09' E 010°27'3 6.2
2017-Jul-02 16:00N 59°10' E 010°22'0 0.9
2017-Jul-02 15:30N 59°10' E 010°21'4 8.7
2017-Jul-02 15:00N 59°06' E 010°22'4 4.3
2017-Jul-02 14:00N 59°05' E 010°15'4 8.0
2017-Jul-02 13:30N 59°01' E 010°13'4 8.5
2017-Jul-02 13:00N 58°60' E 010°05'1 2.2
2017-Jul-02 12:30N 58°59' E 010°04'4 8.0
2017-Jul-02 12:00N 58°57' E 009°57'4 8.4
2017-Jul-02 11:30N 58°57' E 009°49'5 9.4
2017-Jul-02 11:00N 59°02' E 009°45'3 6.9
2017-Jul-02 10:30N 59°04' E 009°39'1 2.8
2017-Jul-02 10:00N 59°05' E 009°38'3 6.9
2017-Jul-02 09:30N 59°03' E 009°43'2 4.4
2017-Jul-02 09:00N 59°01' E 009°47'4 8.2
2017-Jul-02 08:30N 58°57' E 009°47'1 2.8
2017-Jul-02 08:00N 58°56' E 009°46'4 9.0
2017-Jul-02 07:30N 58°53' E 009°40'4 9.0
2017-Jul-02 07:00N 58°50' E 009°34'4 8.8
2017-Jul-02 06:30N 58°47' E 009°27'4 8.7
2017-Jul-02 06:00N 58°45' E 009°20'2 5.0
2017-Jul-02 05:30N 58°44' E 009°15'1 2.6
2017-Jul-02 05:00N 58°43' E 009°14'0 0.0
2017-Jul-02 04:30N 58°43' E 009°14'0 0.0
2017-Jul-02 04:00N 58°43' E 009°14'0 0.0
2017-Jul-02 03:30N 58°43' E 009°14'0 0.0
2017-Jul-02 03:00N 58°43' E 009°14'0 0.0
2017-Jul-02 02:30N 58°43' E 009°14'0 0.0
2017-Jul-02 02:00N 58°43' E 009°14'0 0.0
2017-Jul-02 01:30N 58°43' E 009°14'0 0.0
2017-Jul-02 01:00N 58°43' E 009°14'0 0.0
2017-Jul-02 00:30N 58°43' E 009°14'0 0.0
2017-Jul-02 00:00N 58°43' E 009°14'0 0.0
2017-Jul-01 23:30N 58°43' E 009°14'0 0.0
2017-Jul-01 23:00N 58°43' E 009°14'0 0.0
2017-Jul-01 22:30N 58°43' E 009°14'0 0.0
2017-Jul-01 22:00N 58°43' E 009°14'0 0.0
2017-Jul-01 21:30N 58°43' E 009°14'0 0.0
2017-Jul-01 21:00N 58°43' E 009°14'0 0.0
2017-Jul-01 20:30N 58°43' E 009°14'0 0.0
2017-Jul-01 20:00N 58°43' E 009°14'0 0.0
2017-Jul-01 19:30N 58°43' E 009°14'0 0.0
2017-Jul-01 19:00N 58°43' E 009°14'0 0.0
2017-Jul-01 18:30N 58°43' E 009°14'0 0.0
2017-Jul-01 18:00N 58°43' E 009°14'0 0.0
2017-Jul-01 17:30N 58°43' E 009°14'0 0.1
2017-Jul-01 17:01N 58°43' E 009°15'4 8.0
2017-Jul-01 16:30N 58°39' E 009°13'4 8.5
2017-Jul-01 16:00N 58°36' E 009°08'4 8.7
2017-Jul-01 15:30N 58°32' E 009°03'4 8.7
2017-Jul-01 15:00N 58°29' E 008°58'7 7.2
2017-Jul-01 14:00N 58°23' E 008°50'3 6.8
2017-Jul-01 13:30N 58°20' E 008°53'4 8.1
2017-Jul-01 13:00N 58°17' E 008°58'2 4.8
2017-Jul-01 12:30N 58°15' E 009°01'4 7.8
2017-Jul-01 12:00N 58°12' E 009°05'3 6.3
2017-Jul-01 11:30N 58°09' E 009°09'2 3.0
2017-Jul-01 10:58N 58°08' E 009°11'9 5.9
2017-Jul-01 09:26N 58°01' E 009°20'2 4.0
2017-Jul-01 09:00N 57°59' E 009°22'4 8.3
2017-Jul-01 08:30N 57°56' E 009°27'4 7.3
2017-Jul-01 07:59N 57°53' E 009°32'4 7.6
2017-Jul-01 07:30N 57°50' E 009°36'4 8.0
2017-Jul-01 07:00N 57°47' E 009°41'4 9.1
2017-Jul-01 06:30N 57°43' E 009°46'3 6.2
2017-Jul-01 06:00N 57°41' E 009°49'3 6.7
2017-Jul-01 05:30N 57°38' E 009°53'4 4.5
2017-Jul-01 04:40N 57°36' E 009°58'0 0.0
2017-Jul-01 04:21N 57°36' E 009°58'0 0.0
2017-Jun-30 08:31N 57°36' E 009°58'0 0.0
2017-Jun-30 08:28N 57°36' E 009°58'0 0.0
2017-Jun-29 08:34N 57°36' E 009°58'0 0.0
2017-Jun-29 08:29N 57°36' E 009°58'0 0.0
2017-Jun-29 08:00N 57°36' E 009°58'0 0.0
2017-Jun-29 07:29N 57°36' E 009°58'0 0.0
2017-Jun-29 06:59N 57°36' E 009°58'0 0.0
2017-Jun-29 06:30N 57°36' E 009°58'0 0.0
2017-Jun-29 06:00N 57°36' E 009°58'0 0.0
2017-Jun-29 05:29N 57°36' E 009°58'0 0.0
2017-Jun-28 23:47N 57°36' E 009°58'0 0.0
2017-Jun-28 17:46N 57°36' E 009°58'0 0.0
2017-Jun-28 17:29N 57°36' E 009°58'0 0.0
2017-Jun-28 17:00N 57°36' E 009°58'0 0.0
2017-Jun-28 16:29N 57°36' E 009°58'0 0.0
2017-Jun-28 16:00N 57°36' E 009°58'0 0.0
2017-Jun-28 15:30N 57°36' E 009°58'0 0.0
2017-Jun-28 14:59N 57°36' E 009°58'0 0.0
2017-Jun-28 07:44N 57°36' E 009°58'0 0.1
2017-Jun-28 06:35N 57°36' E 009°58'0 4.8
2017-Jun-28 06:30N 57°36' E 009°57'1 1.1
2017-Jun-28 06:00N 57°36' E 009°58'0 0.1
2017-Jun-28 05:28N 57°36' E 009°57'0 0.0
2017-Jun-28 04:58N 57°36' E 009°57'0 0.0
2017-Jun-28 04:25N 57°36' E 009°57'0 0.0
2017-Jun-28 03:57N 57°36' E 009°57'0 0.0
2017-Jun-28 03:28N 57°36' E 009°57'0 0.0
2017-Jun-28 03:00N 57°36' E 009°57'0 0.0
2017-Jun-28 02:22N 57°36' E 009°57'0 0.0
2017-Jun-28 01:57N 57°36' E 009°57'0 0.0
2017-Jun-28 01:30N 57°36' E 009°57'0 0.0
2017-Jun-28 01:00N 57°36' E 009°57'0 0.0
2017-Jun-28 00:30N 57°36' E 009°57'0 0.0
2017-Jun-28 00:00N 57°36' E 009°57'0 0.0
2017-Jun-27 23:29N 57°36' E 009°57'0 0.0
2017-Jun-27 22:59N 57°36' E 009°57'0 0.0
2017-Jun-27 22:30N 57°36' E 009°57'0 0.0
2017-Jun-27 22:00N 57°36' E 009°57'0 0.0
2017-Jun-27 21:30N 57°36' E 009°57'0 0.0
2017-Jun-27 21:00N 57°36' E 009°57'0 0.0
2017-Jun-27 20:30N 57°36' E 009°57'0 0.0
2017-Jun-27 19:59N 57°36' E 009°57'0 0.0
2017-Jun-27 19:30N 57°36' E 009°57'0 0.0
2017-Jun-27 18:56N 57°36' E 009°57'0 0.0
2017-Jun-27 18:30N 57°36' E 009°57'0 0.0
2017-Jun-27 18:00N 57°36' E 009°57'0 0.0
2017-Jun-27 17:29N 57°36' E 009°57'0 0.0
2017-Jun-27 17:00N 57°36' E 009°57'0 0.0
2017-Jun-27 16:30N 57°36' E 009°57'0 0.0
2017-Jun-27 15:57N 57°36' E 009°57'0 0.0
2017-Jun-27 15:29N 57°36' E 009°57'0 0.0
2017-Jun-27 15:00N 57°36' E 009°57'0 0.0
2017-Jun-27 14:00N 57°36' E 009°57'0 0.0
2017-Jun-27 12:36N 57°36' E 009°57'0 0.0
2017-Jun-27 11:28N 57°36' E 009°57'0 0.0
2017-Jun-27 10:04N 57°36' E 009°57'0 0.0
2017-Jun-27 07:59N 57°36' E 009°57'0 0.0
2017-Jun-27 02:58N 57°36' E 009°57'0 0.0
2017-Jun-26 04:29N 57°36' E 009°57'0 0.0
2017-Jun-26 04:00N 57°36' E 009°57'0 0.0
2017-Jun-26 03:29N 57°36' E 009°57'0 0.0
2017-Jun-26 02:58N 57°36' E 009°57'0 0.0
2017-Jun-26 02:30N 57°36' E 009°57'0 0.0
2017-Jun-26 01:59N 57°36' E 009°57'0 0.0
2017-Jun-26 01:29N 57°36' E 009°57'0 0.0
2017-Jun-26 00:59N 57°36' E 009°57'0 0.0
2017-Jun-26 00:30N 57°36' E 009°57'0 0.0
2017-Jun-26 00:00N 57°36' E 009°57'  
Track history (hours):
 
Tides and Currents Weather Stations Pressure Air Temp Water Temp Dewpoint Dewpoint Depression Visibility Wind Speed Wind Dir Waves Ship Positions

Oceanographic research ship G. M. Dannevig (Norway)

Detailed information on ship capabilities available from University of Delaware's Ocean Information Center.

Last reported at 2017-Jul-05 08:30 UTC. Time now 2017-Jul-24 18:45 UTC.
Position N 58°43' E 009°18'.
Warning: this ship's position is 19 days out of date.

Length 27 m; draft 0.35 m.

Type: Dredging. MMSI: 258513000.

Date/timePositionNaut miles runAvg speedWind from/ knotsBaromVisibWave heightAir tempDewpointWater temp
2017-Jul-05 08:30N 58°43' E 009°18'5 9.6
2017-Jul-05 08:00N 58°45' E 009°26'5 9.9
2017-Jul-05 07:30N 58°48' E 009°34'5 9.8
2017-Jul-05 07:00N 58°50' E 009°42'5 9.4
2017-Jul-05 06:30N 58°53' E 009°50'5 9.7
2017-Jul-05 06:00N 58°55' E 009°58'5 9.1
2017-Jul-05 05:30N 58°59' E 010°04'4 8.6
2017-Jul-05 05:00N 59°03' E 010°02'0 0.1
2017-Jul-05 04:30N 59°03' E 010°02'0 0.0
2017-Jul-05 04:00N 59°03' E 010°02'0 0.0
2017-Jul-05 03:29N 59°03' E 010°02'0 0.0
2017-Jul-05 03:00N 59°03' E 010°02'0 0.0
2017-Jul-05 02:30N 59°03' E 010°02'0 0.0
2017-Jul-05 02:00N 59°03' E 010°02'0 0.0
2017-Jul-05 01:30N 59°03' E 010°02'0 0.0
2017-Jul-05 01:00N 59°03' E 010°02'0 0.0
2017-Jul-05 00:30N 59°03' E 010°02'0 0.0
2017-Jul-05 00:00N 59°03' E 010°02'0 0.0
2017-Jul-04 23:30N 59°03' E 010°02'0 0.0
2017-Jul-04 23:00N 59°03' E 010°02'0 0.0
2017-Jul-04 22:30N 59°03' E 010°02'0 0.0
2017-Jul-04 22:00N 59°03' E 010°02'0 0.0
2017-Jul-04 21:30N 59°03' E 010°02'0 0.0
2017-Jul-04 21:00N 59°03' E 010°02'0 0.0
2017-Jul-04 20:30N 59°03' E 010°02'0 0.0
2017-Jul-04 20:00N 59°03' E 010°02'0 0.0
2017-Jul-04 19:30N 59°03' E 010°02'0 0.0
2017-Jul-04 19:00N 59°03' E 010°02'0 0.0
2017-Jul-04 18:30N 59°03' E 010°02'0 0.0
2017-Jul-04 18:00N 59°03' E 010°02'3 5.1
2017-Jul-04 17:30N 59°01' E 010°04'4 8.4
2017-Jul-04 17:00N 58°60' E 010°12'5 9.1
2017-Jul-04 16:30N 59°00' E 010°20'4 9.0
2017-Jul-04 16:00N 59°01' E 010°29'4 8.8
2017-Jul-04 15:30N 59°02' E 010°37'4 8.4
2017-Jul-04 15:00N 59°02' E 010°45'3 2.7
2017-Jul-04 14:00N 59°03' E 010°51'4 7.3
2017-Jul-04 13:30N 59°01' E 010°57'4 8.6
2017-Jul-04 13:00N 59°02' E 011°05'4 8.8
2017-Jul-04 12:30N 59°05' E 011°12'3 6.5
2017-Jul-04 12:00N 59°06' E 011°18'3 6.1
2017-Jul-04 11:30N 59°05' E 011°23'3 5.0
2017-Jul-04 11:00N 59°07' E 011°20'4 8.1
2017-Jul-04 10:30N 59°05' E 011°12'2 3.9
2017-Jul-04 10:00N 59°06' E 011°09'4 8.5
2017-Jul-04 09:30N 59°06' E 011°01'2 4.5
2017-Jul-04 09:00N 59°08' E 010°58'3 5.3
2017-Jul-04 08:30N 59°08' E 010°53'2 4.9
2017-Jul-04 08:00N 59°09' E 010°48'4 8.9
2017-Jul-04 07:30N 59°11' E 010°41'0 0.3
2017-Jul-04 07:00N 59°11' E 010°41'3 6.6
2017-Jul-04 06:31N 59°14' E 010°43'3 5.5
2017-Jul-04 06:00N 59°17' E 010°43'4 8.3
2017-Jul-04 05:30N 59°15' E 010°36'3 6.0
2017-Jul-04 05:00N 59°13' E 010°32'0 0.0
2017-Jul-04 04:30N 59°13' E 010°32'0 0.0
2017-Jul-04 04:00N 59°13' E 010°32'0 0.0
2017-Jul-04 03:30N 59°13' E 010°32'0 0.0
2017-Jul-04 03:00N 59°13' E 010°32'0 0.0
2017-Jul-04 02:30N 59°13' E 010°32'0 0.0
2017-Jul-04 02:00N 59°13' E 010°32'0 0.0
2017-Jul-04 01:30N 59°13' E 010°32'0 0.0
2017-Jul-04 01:00N 59°13' E 010°32'0 0.0
2017-Jul-04 00:30N 59°13' E 010°32'0 0.0
2017-Jul-04 00:00N 59°13' E 010°32'0 0.0
2017-Jul-03 23:30N 59°13' E 010°32'0 0.0
2017-Jul-03 23:00N 59°13' E 010°32'0 0.0
2017-Jul-03 22:30N 59°13' E 010°32'0 0.0
2017-Jul-03 22:00N 59°13' E 010°32'0 0.0
2017-Jul-03 21:30N 59°13' E 010°32'0 0.0
2017-Jul-03 21:00N 59°13' E 010°32'0 0.0
2017-Jul-03 20:30N 59°13' E 010°32'0 0.0
2017-Jul-03 20:00N 59°13' E 010°32'0 0.0
2017-Jul-03 19:30N 59°13' E 010°32'0 0.0
2017-Jul-03 19:00N 59°13' E 010°32'0 0.0
2017-Jul-03 18:30N 59°13' E 010°32'0 0.0
2017-Jul-03 18:00N 59°13' E 010°32'0 0.0
2017-Jul-03 17:30N 59°13' E 010°32'1 1.6
2017-Jul-03 17:00N 59°12' E 010°32'3 5.6
2017-Jul-03 16:30N 59°10' E 010°34'2 4.3
2017-Jul-03 16:00N 59°08' E 010°36'4 8.4
2017-Jul-03 15:30N 59°12' E 010°36'4 7.6
2017-Jul-03 15:00N 59°16' E 010°34'7 6.8
2017-Jul-03 14:00N 59°22' E 010°36'3 6.8
2017-Jul-03 13:30N 59°26' E 010°35'5 9.2
2017-Jul-03 13:00N 59°30' E 010°37'2 4.1
2017-Jul-03 12:30N 59°29' E 010°41'4 8.8
2017-Jul-03 12:00N 59°33' E 010°39'1 1.6
2017-Jul-03 11:30N 59°34' E 010°38'5 9.1
2017-Jul-03 11:00N 59°31' E 010°31'4 7.4
2017-Jul-03 10:30N 59°32' E 010°24'5 9.2
2017-Jul-03 10:00N 59°37' E 010°25'3 6.3
2017-Jul-03 09:30N 59°40' E 010°24'4 7.0
2017-Jul-03 09:00N 59°42' E 010°19'4 8.8
2017-Jul-03 08:30N 59°39' E 010°24'4 7.8
2017-Jul-03 08:00N 59°35' E 010°25'4 8.3
2017-Jul-03 07:30N 59°31' E 010°25'2 4.5
2017-Jul-03 07:00N 59°29' E 010°28'4 8.7
2017-Jul-03 06:30N 59°25' E 010°32'4 8.8
2017-Jul-03 06:00N 59°21' E 010°33'4 8.7
2017-Jul-03 05:30N 59°16' E 010°33'3 6.9
2017-Jul-03 05:00N 59°13' E 010°32'0 0.0
2017-Jul-03 04:30N 59°13' E 010°32'0 0.0
2017-Jul-03 04:00N 59°13' E 010°32'0 0.0
2017-Jul-03 03:30N 59°13' E 010°32'0 0.0
2017-Jul-03 03:00N 59°13' E 010°32'0 0.0
2017-Jul-03 02:30N 59°13' E 010°32'0 0.0
2017-Jul-03 02:00N 59°13' E 010°32'0 0.0
2017-Jul-03 01:30N 59°13' E 010°32'0 0.0
2017-Jul-03 01:00N 59°13' E 010°32'0 0.0
2017-Jul-03 00:30N 59°13' E 010°32'0 0.0
2017-Jul-03 00:00N 59°13' E 010°32'0 0.0
2017-Jul-02 23:30N 59°13' E 010°32'0 0.0
2017-Jul-02 23:00N 59°13' E 010°32'0 0.0
2017-Jul-02 22:30N 59°13' E 010°32'0 0.0
2017-Jul-02 22:00N 59°13' E 010°32'0 0.0
2017-Jul-02 21:30N 59°13' E 010°32'0 0.0
2017-Jul-02 21:00N 59°13' E 010°32'0 0.0
2017-Jul-02 20:30N 59°13' E 010°32'0 0.0
2017-Jul-02 20:00N 59°13' E 010°32'0 0.0
2017-Jul-02 19:30N 59°13' E 010°32'0 0.0
2017-Jul-02 19:00N 59°13' E 010°32'0 0.0
2017-Jul-02 18:30N 59°13' E 010°32'0 0.0
2017-Jul-02 18:00N 59°13' E 010°32'0 0.2
2017-Jul-02 17:30N 59°13' E 010°31'4 8.3
2017-Jul-02 17:00N 59°09' E 010°28'0 0.7
2017-Jul-02 16:30N 59°09' E 010°27'3 6.2
2017-Jul-02 16:00N 59°10' E 010°22'0 0.9
2017-Jul-02 15:30N 59°10' E 010°21'4 8.7
2017-Jul-02 15:00N 59°06' E 010°22'4 4.3
2017-Jul-02 14:00N 59°05' E 010°15'4 8.0
2017-Jul-02 13:30N 59°01' E 010°13'4 8.5
2017-Jul-02 13:00N 58°60' E 010°05'1 2.2
2017-Jul-02 12:30N 58°59' E 010°04'4 8.0
2017-Jul-02 12:00N 58°57' E 009°57'4 8.4
2017-Jul-02 11:30N 58°57' E 009°49'5 9.4
2017-Jul-02 11:00N 59°02' E 009°45'3 6.9
2017-Jul-02 10:30N 59°04' E 009°39'1 2.8
2017-Jul-02 10:00N 59°05' E 009°38'3 6.9
2017-Jul-02 09:30N 59°03' E 009°43'2 4.4
2017-Jul-02 09:00N 59°01' E 009°47'4 8.2
2017-Jul-02 08:30N 58°57' E 009°47'1 2.8
2017-Jul-02 08:00N 58°56' E 009°46'4 9.0
2017-Jul-02 07:30N 58°53' E 009°40'4 9.0
2017-Jul-02 07:00N 58°50' E 009°34'4 8.8
2017-Jul-02 06:30N 58°47' E 009°27'4 8.7
2017-Jul-02 06:00N 58°45' E 009°20'2 5.0
2017-Jul-02 05:30N 58°44' E 009°15'1 2.6
2017-Jul-02 05:00N 58°43' E 009°14'0 0.0
2017-Jul-02 04:30N 58°43' E 009°14'0 0.0
2017-Jul-02 04:00N 58°43' E 009°14'0 0.0
2017-Jul-02 03:30N 58°43' E 009°14'0 0.0
2017-Jul-02 03:00N 58°43' E 009°14'0 0.0
2017-Jul-02 02:30N 58°43' E 009°14'0 0.0
2017-Jul-02 02:00N 58°43' E 009°14'0 0.0
2017-Jul-02 01:30N 58°43' E 009°14'0 0.0
2017-Jul-02 01:00N 58°43' E 009°14'0 0.0
2017-Jul-02 00:30N 58°43' E 009°14'0 0.0
2017-Jul-02 00:00N 58°43' E 009°14'0 0.0
2017-Jul-01 23:30N 58°43' E 009°14'0 0.0
2017-Jul-01 23:00N 58°43' E 009°14'0 0.0
2017-Jul-01 22:30N 58°43' E 009°14'0 0.0
2017-Jul-01 22:00N 58°43' E 009°14'0 0.0
2017-Jul-01 21:30N 58°43' E 009°14'0 0.0
2017-Jul-01 21:00N 58°43' E 009°14'0 0.0
2017-Jul-01 20:30N 58°43' E 009°14'0 0.0
2017-Jul-01 20:00N 58°43' E 009°14'0 0.0
2017-Jul-01 19:30N 58°43' E 009°14'0 0.0
2017-Jul-01 19:00N 58°43' E 009°14'0 0.0
2017-Jul-01 18:30N 58°43' E 009°14'0 0.0
2017-Jul-01 18:00N 58°43' E 009°14'0 0.0
2017-Jul-01 17:30N 58°43' E 009°14'0 0.1
2017-Jul-01 17:01N 58°43' E 009°15'4 8.0
2017-Jul-01 16:30N 58°39' E 009°13'4 8.5
2017-Jul-01 16:00N 58°36' E 009°08'4 8.7
2017-Jul-01 15:30N 58°32' E 009°03'4 8.7
2017-Jul-01 15:00N 58°29' E 008°58'7 7.2
2017-Jul-01 14:00N 58°23' E 008°50'3 6.8
2017-Jul-01 13:30N 58°20' E 008°53'4 8.1
2017-Jul-01 13:00N 58°17' E 008°58'2 4.8
2017-Jul-01 12:30N 58°15' E 009°01'4 7.8
2017-Jul-01 12:00N 58°12' E 009°05'3 6.3
2017-Jul-01 11:30N 58°09' E 009°09'2 3.0
2017-Jul-01 10:58N 58°08' E 009°11'9 5.9
2017-Jul-01 09:26N 58°01' E 009°20'2 4.0
2017-Jul-01 09:00N 57°59' E 009°22'4 8.3
2017-Jul-01 08:30N 57°56' E 009°27'4 7.3
2017-Jul-01 07:59N 57°53' E 009°32'4 7.6
2017-Jul-01 07:30N 57°50' E 009°36'4 8.0
2017-Jul-01 07:00N 57°47' E 009°41'4 9.1
2017-Jul-01 06:30N 57°43' E 009°46'3 6.2
2017-Jul-01 06:00N 57°41' E 009°49'3 6.7
2017-Jul-01 05:30N 57°38' E 009°53'4 4.5
2017-Jul-01 04:40N 57°36' E 009°58'0 0.0
2017-Jul-01 04:21N 57°36' E 009°58'0 0.0
2017-Jun-30 08:31N 57°36' E 009°58'0 0.0
2017-Jun-30 08:28N 57°36' E 009°58'0 0.0
2017-Jun-29 08:34N 57°36' E 009°58'0 0.0
2017-Jun-29 08:29N 57°36' E 009°58'0 0.0
2017-Jun-29 08:00N 57°36' E 009°58'0 0.0
2017-Jun-29 07:29N 57°36' E 009°58'0 0.0
2017-Jun-29 06:59N 57°36' E 009°58'0 0.0
2017-Jun-29 06:30N 57°36' E 009°58'0 0.0
2017-Jun-29 06:00N 57°36' E 009°58'0 0.0
2017-Jun-29 05:29N 57°36' E 009°58'0 0.0
2017-Jun-28 23:47N 57°36' E 009°58'0 0.0
2017-Jun-28 17:46N 57°36' E 009°58'0 0.0
2017-Jun-28 17:29N 57°36' E 009°58'0 0.0
2017-Jun-28 17:00N 57°36' E 009°58'0 0.0
2017-Jun-28 16:29N 57°36' E 009°58'0 0.0
2017-Jun-28 16:00N 57°36' E 009°58'0 0.0
2017-Jun-28 15:30N 57°36' E 009°58'0 0.0
2017-Jun-28 14:59N 57°36' E 009°58'0 0.0
2017-Jun-28 07:44N 57°36' E 009°58'0 0.1
2017-Jun-28 06:35N 57°36' E 009°58'0 4.8
2017-Jun-28 06:30N 57°36' E 009°57'1 1.1
2017-Jun-28 06:00N 57°36' E 009°58'0 0.1
2017-Jun-28 05:28N 57°36' E 009°57'0 0.0
2017-Jun-28 04:58N 57°36' E 009°57'0 0.0
2017-Jun-28 04:25N 57°36' E 009°57'0 0.0
2017-Jun-28 03:57N 57°36' E 009°57'0 0.0
2017-Jun-28 03:28N 57°36' E 009°57'0 0.0
2017-Jun-28 03:00N 57°36' E 009°57'0 0.0
2017-Jun-28 02:22N 57°36' E 009°57'0 0.0
2017-Jun-28 01:57N 57°36' E 009°57'0 0.0
2017-Jun-28 01:30N 57°36' E 009°57'0 0.0
2017-Jun-28 01:00N 57°36' E 009°57'0 0.0
2017-Jun-28 00:30N 57°36' E 009°57'0 0.0
2017-Jun-28 00:00N 57°36' E 009°57'0 0.0
2017-Jun-27 23:29N 57°36' E 009°57'0 0.0
2017-Jun-27 22:59N 57°36' E 009°57'0 0.0
2017-Jun-27 22:30N 57°36' E 009°57'0 0.0
2017-Jun-27 22:00N 57°36' E 009°57'0 0.0
2017-Jun-27 21:30N 57°36' E 009°57'0 0.0
2017-Jun-27 21:00N 57°36' E 009°57'0 0.0
2017-Jun-27 20:30N 57°36' E 009°57'0 0.0
2017-Jun-27 19:59N 57°36' E 009°57'0 0.0
2017-Jun-27 19:30N 57°36' E 009°57'0 0.0
2017-Jun-27 18:56N 57°36' E 009°57'0 0.0
2017-Jun-27 18:30N 57°36' E 009°57'0 0.0
2017-Jun-27 18:00N 57°36' E 009°57'0 0.0
2017-Jun-27 17:29N 57°36' E 009°57'0 0.0
2017-Jun-27 17:00N 57°36' E 009°57'0 0.0
2017-Jun-27 16:30N 57°36' E 009°57'0 0.0
2017-Jun-27 15:57N 57°36' E 009°57'0 0.0
2017-Jun-27 15:29N 57°36' E 009°57'0 0.0
2017-Jun-27 15:00N 57°36' E 009°57'0 0.0
2017-Jun-27 14:00N 57°36' E 009°57'0 0.0
2017-Jun-27 12:36N 57°36' E 009°57'0 0.0
2017-Jun-27 11:28N 57°36' E 009°57'0 0.0
2017-Jun-27 10:04N 57°36' E 009°57'0 0.0
2017-Jun-27 07:59N 57°36' E 009°57'0 0.0
2017-Jun-27 02:58N 57°36' E 009°57'0 0.0
2017-Jun-26 04:29N 57°36' E 009°57'0 0.0
2017-Jun-26 04:00N 57°36' E 009°57'0 0.0
2017-Jun-26 03:29N 57°36' E 009°57'0 0.0
2017-Jun-26 02:58N 57°36' E 009°57'0 0.0
2017-Jun-26 02:30N 57°36' E 009°57'0 0.0
2017-Jun-26 01:59N 57°36' E 009°57'0 0.0
2017-Jun-26 01:29N 57°36' E 009°57'0 0.0
2017-Jun-26 00:59N 57°36' E 009°57'0 0.0
2017-Jun-26 00:30N 57°36' E 009°57'0 0.0
2017-Jun-26 00:00N 57°36' E 009°57'  

Dump ship's entire track history